sensor_id;sensor_type;location;lat;lon;timestamp;P1;durP1;ratioP1;P2;durP2;ratioP2
68507;SDS011;55510;49.560;19.090;2022-11-15T10:21:17;40.47;;;20.25;;
68507;SDS011;55510;49.560;19.090;2022-11-15T10:24:24;48.35;;;24.65;;
68507;SDS011;55510;49.560;19.090;2022-11-15T10:27:28;40.03;;;21.30;;
68507;SDS011;55510;49.560;19.090;2022-11-15T10:30:39;36.50;;;17.63;;
68507;SDS011;55510;49.560;19.090;2022-11-15T10:33:42;37.22;;;17.58;;
68507;SDS011;55510;49.560;19.090;2022-11-15T10:36:46;41.87;;;19.07;;
68507;SDS011;55510;49.560;19.090;2022-11-15T10:40:04;38.33;;;20.90;;
68507;SDS011;55510;49.560;19.090;2022-11-15T10:46:20;45.20;;;23.08;;
68507;SDS011;55510;49.560;19.090;2022-11-15T10:49:23;44.20;;;21.37;;
68507;SDS011;55510;49.560;19.090;2022-11-15T10:52:26;45.65;;;23.23;;
68507;SDS011;55510;49.560;19.090;2022-11-15T10:55:30;40.20;;;20.90;;
68507;SDS011;55510;49.560;19.090;2022-11-15T10:58:35;35.90;;;20.05;;
68507;SDS011;55510;49.560;19.090;2022-11-15T11:01:46;35.60;;;18.40;;
68507;SDS011;55510;49.560;19.090;2022-11-15T11:04:51;30.37;;;16.60;;
68507;SDS011;55510;49.560;19.090;2022-11-15T11:08:08;28.65;;;15.40;;
68507;SDS011;55510;49.560;19.090;2022-11-15T11:11:21;37.22;;;17.90;;
68507;SDS011;55510;49.560;19.090;2022-11-15T11:14:26;23.27;;;11.63;;
68507;SDS011;55510;49.560;19.090;2022-11-15T11:20:58;19.60;;;10.88;;
68507;SDS011;55510;49.560;19.090;2022-11-15T11:24:10;18.35;;;9.73;;
68507;SDS011;55510;49.560;19.090;2022-11-15T11:37:10;14.52;;;6.50;;
68507;SDS011;55510;49.560;19.090;2022-11-15T11:50:23;8.57;;;4.73;;
68507;SDS011;55510;49.560;19.090;2022-11-15T11:53:29;11.93;;;5.72;;
68507;SDS011;55510;49.560;19.090;2022-11-15T11:56:37;12.52;;;6.22;;
68507;SDS011;55510;49.560;19.090;2022-11-15T12:06:36;11.37;;;5.77;;
68507;SDS011;55510;49.560;19.090;2022-11-15T12:09:51;10.95;;;6.10;;
68507;SDS011;55510;49.560;19.090;2022-11-15T12:13:18;12.15;;;7.32;;
68507;SDS011;55510;49.560;19.090;2022-11-15T12:16:27;13.50;;;6.88;;
68507;SDS011;55510;49.560;19.090;2022-11-15T12:19:29;15.95;;;7.38;;
68507;SDS011;55510;49.560;19.090;2022-11-15T12:29:23;12.50;;;6.88;;
68507;SDS011;55510;49.560;19.090;2022-11-15T12:32:29;11.70;;;6.13;;
68507;SDS011;55510;49.560;19.090;2022-11-15T12:39:00;11.70;;;5.17;;
68507;SDS011;55510;49.560;19.090;2022-11-15T12:45:22;10.13;;;5.82;;
68507;SDS011;55510;49.560;19.090;2022-11-15T12:57:56;27.13;;;11.23;;
68507;SDS011;55510;49.560;19.090;2022-11-15T13:04:30;19.40;;;7.80;;
68507;SDS011;55510;49.560;19.090;2022-11-15T13:10:35;21.70;;;10.00;;
68507;SDS011;55510;49.560;19.090;2022-11-15T13:13:43;16.38;;;6.90;;
68507;SDS011;55510;49.560;19.090;2022-11-15T13:16:44;14.35;;;6.40;;
68507;SDS011;55510;49.560;19.090;2022-11-15T13:19:49;12.30;;;5.90;;
68507;SDS011;55510;49.560;19.090;2022-11-15T13:26:06;10.65;;;5.28;;
68507;SDS011;55510;49.560;19.090;2022-11-15T13:29:17;10.18;;;4.60;;
68507;SDS011;55510;49.560;19.090;2022-11-15T13:32:20;10.75;;;5.72;;
68507;SDS011;55510;49.560;19.090;2022-11-15T13:35:28;28.93;;;11.40;;
68507;SDS011;55510;49.560;19.090;2022-11-15T13:38:36;17.95;;;7.60;;
68507;SDS011;55510;49.560;19.090;2022-11-15T13:41:44;15.68;;;7.40;;
68507;SDS011;55510;49.560;19.090;2022-11-15T13:44:58;20.25;;;10.57;;
68507;SDS011;55510;49.560;19.090;2022-11-15T13:48:03;26.77;;;13.05;;
68507;SDS011;55510;49.560;19.090;2022-11-15T13:51:05;27.57;;;14.77;;
68507;SDS011;55510;49.560;19.090;2022-11-15T13:54:20;30.85;;;16.98;;
68507;SDS011;55510;49.560;19.090;2022-11-15T13:57:32;20.42;;;10.95;;
68507;SDS011;55510;49.560;19.090;2022-11-15T14:00:44;22.08;;;10.38;;
68507;SDS011;55510;49.560;19.090;2022-11-15T14:03:50;18.93;;;9.93;;
68507;SDS011;55510;49.560;19.090;2022-11-15T14:06:55;23.20;;;10.23;;
68507;SDS011;55510;49.560;19.090;2022-11-15T14:09:58;18.55;;;7.80;;
68507;SDS011;55510;49.560;19.090;2022-11-15T14:13:27;13.80;;;6.50;;
68507;SDS011;55510;49.560;19.090;2022-11-15T14:16:37;18.35;;;8.15;;
68507;SDS011;55510;49.560;19.090;2022-11-15T14:19:41;20.80;;;10.20;;
68507;SDS011;55510;49.560;19.090;2022-11-15T14:22:51;23.33;;;8.83;;
68507;SDS011;55510;49.560;19.090;2022-11-15T14:25:54;27.88;;;11.80;;
68507;SDS011;55510;49.560;19.090;2022-11-15T14:28:56;52.28;;;21.85;;
68507;SDS011;55510;49.560;19.090;2022-11-15T14:32:12;77.87;;;30.23;;
68507;SDS011;55510;49.560;19.090;2022-11-15T14:35:15;54.10;;;25.75;;
68507;SDS011;55510;49.560;19.090;2022-11-15T14:38:18;36.60;;;17.00;;
68507;SDS011;55510;49.560;19.090;2022-11-15T14:41:23;29.30;;;12.98;;
68507;SDS011;55510;49.560;19.090;2022-11-15T14:44:26;25.37;;;10.83;;
68507;SDS011;55510;49.560;19.090;2022-11-15T14:47:27;22.63;;;10.98;;
68507;SDS011;55510;49.560;19.090;2022-11-15T14:50:27;19.20;;;9.80;;
68507;SDS011;55510;49.560;19.090;2022-11-15T14:53:28;21.25;;;10.82;;
68507;SDS011;55510;49.560;19.090;2022-11-15T14:56:29;21.33;;;10.50;;
68507;SDS011;55510;49.560;19.090;2022-11-15T14:59:29;20.88;;;10.95;;
68507;SDS011;55510;49.560;19.090;2022-11-15T15:02:30;23.53;;;11.30;;
68507;SDS011;55510;49.560;19.090;2022-11-15T15:08:33;29.03;;;15.40;;
68507;SDS011;55510;49.560;19.090;2022-11-15T15:11:34;35.08;;;17.17;;
68507;SDS011;55510;49.560;19.090;2022-11-15T15:14:35;42.00;;;19.80;;
68507;SDS011;55510;49.560;19.090;2022-11-15T15:17:35;61.40;;;27.80;;
68507;SDS011;55510;49.560;19.090;2022-11-15T15:20:36;90.13;;;42.07;;
68507;SDS011;55510;49.560;19.090;2022-11-15T15:23:39;95.53;;;44.03;;
68507;SDS011;55510;49.560;19.090;2022-11-15T15:26:40;105.87;;;48.43;;
68507;SDS011;55510;49.560;19.090;2022-11-15T15:29:41;102.72;;;46.83;;
68507;SDS011;55510;49.560;19.090;2022-11-15T15:32:41;108.37;;;47.80;;
68507;SDS011;55510;49.560;19.090;2022-11-15T15:35:45;116.03;;;53.42;;
68507;SDS011;55510;49.560;19.090;2022-11-15T15:38:46;144.53;;;63.57;;
68507;SDS011;55510;49.560;19.090;2022-11-15T15:41:47;206.60;;;84.13;;
68507;SDS011;55510;49.560;19.090;2022-11-15T15:44:47;259.20;;;103.03;;
68507;SDS011;55510;49.560;19.090;2022-11-15T15:47:49;208.10;;;89.83;;
68507;SDS011;55510;49.560;19.090;2022-11-15T15:50:52;170.70;;;82.68;;
68507;SDS011;55510;49.560;19.090;2022-11-15T15:53:52;155.45;;;76.68;;
68507;SDS011;55510;49.560;19.090;2022-11-15T15:56:57;171.10;;;92.28;;
68507;SDS011;55510;49.560;19.090;2022-11-15T15:59:57;161.93;;;87.07;;
68507;SDS011;55510;49.560;19.090;2022-11-15T16:02:58;159.27;;;86.60;;
68507;SDS011;55510;49.560;19.090;2022-11-15T16:05:59;161.73;;;86.25;;
68507;SDS011;55510;49.560;19.090;2022-11-15T16:08:59;162.30;;;76.33;;
68507;SDS011;55510;49.560;19.090;2022-11-15T16:12:00;168.43;;;84.32;;
68507;SDS011;55510;49.560;19.090;2022-11-15T16:15:01;191.77;;;90.73;;
68507;SDS011;55510;49.560;19.090;2022-11-15T16:18:03;181.02;;;86.63;;
68507;SDS011;55510;49.560;19.090;2022-11-15T16:21:07;182.33;;;82.20;;
68507;SDS011;55510;49.560;19.090;2022-11-15T16:24:09;157.90;;;75.50;;
68507;SDS011;55510;49.560;19.090;2022-11-15T16:27:13;170.75;;;79.38;;
68507;SDS011;55510;49.560;19.090;2022-11-15T16:30:19;192.63;;;88.23;;
68507;SDS011;55510;49.560;19.090;2022-11-15T16:33:21;209.07;;;95.13;;
68507;SDS011;55510;49.560;19.090;2022-11-15T16:36:23;178.63;;;82.95;;
68507;SDS011;55510;49.560;19.090;2022-11-15T16:39:25;166.32;;;75.65;;
68507;SDS011;55510;49.560;19.090;2022-11-15T16:42:28;170.20;;;75.82;;
68507;SDS011;55510;49.560;19.090;2022-11-15T16:45:28;153.00;;;67.90;;
68507;SDS011;55510;49.560;19.090;2022-11-15T16:48:31;127.10;;;57.97;;
68507;SDS011;55510;49.560;19.090;2022-11-15T16:51:33;135.23;;;58.63;;
68507;SDS011;55510;49.560;19.090;2022-11-15T16:54:34;169.83;;;69.27;;
68507;SDS011;55510;49.560;19.090;2022-11-15T16:57:34;147.77;;;68.17;;
68507;SDS011;55510;49.560;19.090;2022-11-15T17:00:35;138.98;;;61.40;;
68507;SDS011;55510;49.560;19.090;2022-11-15T17:03:36;148.53;;;65.77;;
68507;SDS011;55510;49.560;19.090;2022-11-15T17:06:39;165.50;;;74.35;;
68507;SDS011;55510;49.560;19.090;2022-11-15T17:09:40;188.07;;;84.45;;
68507;SDS011;55510;49.560;19.090;2022-11-15T17:12:41;169.20;;;76.40;;
68507;SDS011;55510;49.560;19.090;2022-11-15T17:15:41;170.63;;;74.13;;
68507;SDS011;55510;49.560;19.090;2022-11-15T17:18:42;189.70;;;90.90;;
68507;SDS011;55510;49.560;19.090;2022-11-15T17:21:47;188.90;;;87.55;;
68507;SDS011;55510;49.560;19.090;2022-11-15T17:24:51;181.02;;;84.75;;
68507;SDS011;55510;49.560;19.090;2022-11-15T17:27:51;149.80;;;70.57;;
68507;SDS011;55510;49.560;19.090;2022-11-15T17:30:52;121.80;;;59.80;;
68507;SDS011;55510;49.560;19.090;2022-11-15T17:33:53;116.43;;;56.42;;
68507;SDS011;55510;49.560;19.090;2022-11-15T17:36:54;144.30;;;70.03;;
68507;SDS011;55510;49.560;19.090;2022-11-15T17:39:54;201.43;;;89.88;;
68507;SDS011;55510;49.560;19.090;2022-11-15T17:42:55;200.57;;;92.57;;
68507;SDS011;55510;49.560;19.090;2022-11-15T17:45:56;244.13;;;109.53;;
68507;SDS011;55510;49.560;19.090;2022-11-15T17:48:58;259.17;;;125.17;;
68507;SDS011;55510;49.560;19.090;2022-11-15T17:51:58;212.43;;;101.90;;
68507;SDS011;55510;49.560;19.090;2022-11-15T17:54:59;192.00;;;94.00;;
68507;SDS011;55510;49.560;19.090;2022-11-15T17:58:00;163.37;;;78.80;;
68507;SDS011;55510;49.560;19.090;2022-11-15T18:01:07;184.27;;;91.80;;
68507;SDS011;55510;49.560;19.090;2022-11-15T18:04:09;167.37;;;84.23;;
68507;SDS011;55510;49.560;19.090;2022-11-15T18:07:10;162.15;;;82.47;;
68507;SDS011;55510;49.560;19.090;2022-11-15T18:10:12;194.10;;;97.28;;
68507;SDS011;55510;49.560;19.090;2022-11-15T18:13:13;217.93;;;105.13;;
68507;SDS011;55510;49.560;19.090;2022-11-15T18:16:15;200.20;;;107.77;;
68507;SDS011;55510;49.560;19.090;2022-11-15T18:19:17;219.65;;;109.10;;
68507;SDS011;55510;49.560;19.090;2022-11-15T18:22:17;226.50;;;110.82;;
68507;SDS011;55510;49.560;19.090;2022-11-15T18:25:20;199.47;;;102.17;;
68507;SDS011;55510;49.560;19.090;2022-11-15T18:28:20;185.73;;;97.80;;
68507;SDS011;55510;49.560;19.090;2022-11-15T18:31:26;181.52;;;93.60;;
68507;SDS011;55510;49.560;19.090;2022-11-15T18:34:28;198.00;;;104.25;;
68507;SDS011;55510;49.560;19.090;2022-11-15T18:37:31;193.13;;;100.43;;
68507;SDS011;55510;49.560;19.090;2022-11-15T18:40:32;174.40;;;92.70;;
68507;SDS011;55510;49.560;19.090;2022-11-15T18:43:33;168.73;;;87.40;;
68507;SDS011;55510;49.560;19.090;2022-11-15T18:46:34;160.00;;;83.50;;
68507;SDS011;55510;49.560;19.090;2022-11-15T18:49:35;155.48;;;82.57;;
68507;SDS011;55510;49.560;19.090;2022-11-15T18:52:35;170.20;;;90.70;;
68507;SDS011;55510;49.560;19.090;2022-11-15T18:55:36;183.13;;;96.28;;
68507;SDS011;55510;49.560;19.090;2022-11-15T18:58:38;164.53;;;87.67;;
68507;SDS011;55510;49.560;19.090;2022-11-15T19:01:42;156.13;;;83.07;;
68507;SDS011;55510;49.560;19.090;2022-11-15T19:04:46;158.55;;;80.88;;
68507;SDS011;55510;49.560;19.090;2022-11-15T19:07:47;142.30;;;75.72;;
68507;SDS011;55510;49.560;19.090;2022-11-15T19:10:50;137.00;;;72.63;;
68507;SDS011;55510;49.560;19.090;2022-11-15T19:13:52;130.77;;;68.50;;
68507;SDS011;55510;49.560;19.090;2022-11-15T19:17:00;124.47;;;67.70;;
68507;SDS011;55510;49.560;19.090;2022-11-15T19:20:01;149.60;;;76.73;;
68507;SDS011;55510;49.560;19.090;2022-11-15T19:23:01;144.32;;;75.13;;
68507;SDS011;55510;49.560;19.090;2022-11-15T19:26:03;133.47;;;70.70;;
68507;SDS011;55510;49.560;19.090;2022-11-15T19:29:06;133.55;;;71.25;;
68507;SDS011;55510;49.560;19.090;2022-11-15T19:32:09;131.57;;;67.03;;
68507;SDS011;55510;49.560;19.090;2022-11-15T19:35:10;117.20;;;64.17;;
68507;SDS011;55510;49.560;19.090;2022-11-15T19:38:11;113.82;;;58.42;;
68507;SDS011;55510;49.560;19.090;2022-11-15T19:41:15;113.43;;;58.60;;
68507;SDS011;55510;49.560;19.090;2022-11-15T19:44:17;111.82;;;56.72;;
68507;SDS011;55510;49.560;19.090;2022-11-15T19:47:18;118.78;;;61.63;;
68507;SDS011;55510;49.560;19.090;2022-11-15T19:50:19;117.00;;;57.83;;
68507;SDS011;55510;49.560;19.090;2022-11-15T19:53:22;114.30;;;58.72;;
68507;SDS011;55510;49.560;19.090;2022-11-15T19:56:22;119.60;;;60.77;;
68507;SDS011;55510;49.560;19.090;2022-11-15T19:59:23;134.02;;;68.03;;
68507;SDS011;55510;49.560;19.090;2022-11-15T20:02:24;138.52;;;67.60;;
68507;SDS011;55510;49.560;19.090;2022-11-15T20:05:25;123.80;;;64.70;;
68507;SDS011;55510;49.560;19.090;2022-11-15T20:08:26;165.93;;;79.88;;
68507;SDS011;55510;49.560;19.090;2022-11-15T20:11:27;225.77;;;112.07;;
68507;SDS011;55510;49.560;19.090;2022-11-15T20:14:27;238.20;;;111.78;;
68507;SDS011;55510;49.560;19.090;2022-11-15T20:17:29;208.65;;;99.68;;
68507;SDS011;55510;49.560;19.090;2022-11-15T20:20:30;189.80;;;90.67;;
68507;SDS011;55510;49.560;19.090;2022-11-15T20:23:31;164.50;;;82.43;;
68507;SDS011;55510;49.560;19.090;2022-11-15T20:26:32;159.33;;;77.47;;
68507;SDS011;55510;49.560;19.090;2022-11-15T20:29:34;147.25;;;71.82;;
68507;SDS011;55510;49.560;19.090;2022-11-15T20:32:35;142.10;;;70.95;;
68507;SDS011;55510;49.560;19.090;2022-11-15T20:35:35;130.03;;;66.30;;
68507;SDS011;55510;49.560;19.090;2022-11-15T20:38:36;126.40;;;58.60;;
68507;SDS011;55510;49.560;19.090;2022-11-15T20:41:37;114.57;;;58.30;;
68507;SDS011;55510;49.560;19.090;2022-11-15T20:44:38;116.30;;;57.75;;
68507;SDS011;55510;49.560;19.090;2022-11-15T20:47:38;117.63;;;57.03;;
68507;SDS011;55510;49.560;19.090;2022-11-15T20:50:39;126.77;;;61.70;;
68507;SDS011;55510;49.560;19.090;2022-11-15T20:53:41;114.20;;;58.00;;
68507;SDS011;55510;49.560;19.090;2022-11-15T20:56:43;110.40;;;57.33;;
68507;SDS011;55510;49.560;19.090;2022-11-15T20:59:44;113.33;;;57.63;;
68507;SDS011;55510;49.560;19.090;2022-11-15T21:02:45;133.98;;;70.82;;
68507;SDS011;55510;49.560;19.090;2022-11-15T21:05:45;131.53;;;68.13;;
68507;SDS011;55510;49.560;19.090;2022-11-15T21:08:47;132.77;;;64.10;;
68507;SDS011;55510;49.560;19.090;2022-11-15T21:12:09;118.07;;;58.40;;
68507;SDS011;55510;49.560;19.090;2022-11-15T21:15:12;124.35;;;63.50;;
68507;SDS011;55510;49.560;19.090;2022-11-15T21:18:12;116.47;;;62.45;;
68507;SDS011;55510;49.560;19.090;2022-11-15T21:21:14;137.47;;;70.07;;
68507;SDS011;55510;49.560;19.090;2022-11-15T21:24:14;147.23;;;75.30;;
68507;SDS011;55510;49.560;19.090;2022-11-15T21:27:15;139.93;;;70.00;;
68507;SDS011;55510;49.560;19.090;2022-11-15T21:30:18;142.82;;;72.10;;
68507;SDS011;55510;49.560;19.090;2022-11-15T21:33:19;129.73;;;64.38;;
68507;SDS011;55510;49.560;19.090;2022-11-15T21:36:20;120.65;;;59.25;;
68507;SDS011;55510;49.560;19.090;2022-11-15T21:39:21;111.57;;;57.83;;
68507;SDS011;55510;49.560;19.090;2022-11-15T21:42:21;117.25;;;60.58;;
68507;SDS011;55510;49.560;19.090;2022-11-15T21:45:22;123.13;;;62.63;;
68507;SDS011;55510;49.560;19.090;2022-11-15T21:48:23;119.73;;;60.83;;
68507;SDS011;55510;49.560;19.090;2022-11-15T21:51:23;131.60;;;68.53;;
68507;SDS011;55510;49.560;19.090;2022-11-15T21:54:24;116.73;;;60.43;;
68507;SDS011;55510;49.560;19.090;2022-11-15T21:57:25;118.00;;;61.15;;
68507;SDS011;55510;49.560;19.090;2022-11-15T22:00:29;120.13;;;59.30;;
68507;SDS011;55510;49.560;19.090;2022-11-15T22:03:48;106.28;;;55.53;;
68507;SDS011;55510;49.560;19.090;2022-11-15T22:06:49;113.45;;;58.42;;
68507;SDS011;55510;49.560;19.090;2022-11-15T22:09:50;109.82;;;56.88;;
68507;SDS011;55510;49.560;19.090;2022-11-15T22:12:51;114.83;;;58.27;;
68507;SDS011;55510;49.560;19.090;2022-11-15T22:15:52;115.93;;;57.47;;
68507;SDS011;55510;49.560;19.090;2022-11-15T22:18:53;118.90;;;63.57;;
68507;SDS011;55510;49.560;19.090;2022-11-15T22:21:54;139.18;;;68.30;;
68507;SDS011;55510;49.560;19.090;2022-11-15T22:24:54;132.23;;;67.27;;
68507;SDS011;55510;49.560;19.090;2022-11-15T22:27:55;133.25;;;65.72;;
68507;SDS011;55510;49.560;19.090;2022-11-15T22:30:56;122.90;;;64.87;;
68507;SDS011;55510;49.560;19.090;2022-11-15T22:33:57;114.90;;;55.75;;
68507;SDS011;55510;49.560;19.090;2022-11-15T22:36:58;125.00;;;59.93;;
68507;SDS011;55510;49.560;19.090;2022-11-15T22:39:58;100.97;;;51.87;;
68507;SDS011;55510;49.560;19.090;2022-11-15T22:43:00;96.40;;;48.08;;
68507;SDS011;55510;49.560;19.090;2022-11-15T22:46:01;119.07;;;57.27;;
68507;SDS011;55510;49.560;19.090;2022-11-15T22:49:03;113.50;;;58.20;;
68507;SDS011;55510;49.560;19.090;2022-11-15T22:52:04;114.68;;;58.03;;
68507;SDS011;55510;49.560;19.090;2022-11-15T22:55:04;112.03;;;57.30;;
68507;SDS011;55510;49.560;19.090;2022-11-15T22:58:06;114.22;;;58.55;;
68507;SDS011;55510;49.560;19.090;2022-11-15T23:01:13;118.28;;;61.88;;
68507;SDS011;55510;49.560;19.090;2022-11-15T23:04:19;132.43;;;68.87;;
68507;SDS011;55510;49.560;19.090;2022-11-15T23:07:19;115.80;;;60.57;;
68507;SDS011;55510;49.560;19.090;2022-11-15T23:10:20;115.30;;;58.33;;
